DTTJ/DJE METAR and TAF weather

Enter ICAO airport designator
Station Type Date Time Source
DTTJ METAR 2019/12/13 14:00 UTC NOAA

DTTJ 131400Z 27018KT 9999 FEW026 17/04 Q1010 NOSIG


Station Type Date Time Source
DTTJ Decoded METAR 2019/12/13 14:00 UTC NOAA

Djerba Mellita, Tunisia (DTTJ) 33-52N 010-46E 4M
Dec 13, 2019 - 09:00 AM EST / 2019.12.13 1400 UTC
Wind: from the W (270 degrees) at 21 MPH (18 KT):0
Visibility: greater than 7 mile(s):0
Sky conditions: mostly clear
Temperature: 62 F (17 C)
Dew Point: 39 F (4 C)
Relative Humidity: 41%
Pressure (altimeter): 29.83 in. Hg (1010 hPa)
ob: DTTJ 131400Z 27018KT 9999 FEW026 17/04 Q1010 NOSIG
cycle: 14

Station Type Date Time Source
DTTJ TAF 2019/12/13 12:51 UTC NOAA

TAF DTTJ 131100Z 1312/1412 27018KT 9999 FEW026
BECMG 1312/1314 27020G31KT PROB30
TEMPO 1315/1320 3000 SA
BECMG 1323/1401 27016KT

Example: see airport list